Time;durP1;ratioP1;P1;durP2;ratioP2;P2;SDS_P1;SDS_P2;PMS_P1;PMS_P2;Temp;Humidity;BMP_temperature;BMP_pressure;BME280_temperature;BME280_humidity;BME280_pressure;Samples;Min_cycle;Max_cycle;Signal;HPM_P1;HPM_P2
2023/06/11 00:00:43;;;;;;;8.63;5.03;;;;;;;17.71;100.00;98518.19;5072509;28;20229;-77
2023/06/11 00:03:10;;;;;;;8.67;5.07;;;;;;;17.53;100.00;98515.88;5072606;28;20272;-77
2023/06/11 00:05:37;;;;;;;9.17;5.07;;;;;;;17.41;100.00;98512.84;5072798;28;20253;-77
2023/06/11 00:08:04;;;;;;;10.90;5.30;;;;;;;17.41;100.00;98518.03;5071508;28;20221;-77
2023/06/11 00:10:31;;;;;;;9.80;5.30;;;;;;;17.44;100.00;98511.72;5073504;28;20228;-77
2023/06/11 00:12:57;;;;;;;11.27;6.20;;;;;;;17.50;100.00;98520.56;5073597;28;20642;-77
2023/06/11 00:15:25;;;;;;;14.67;5.43;;;;;;;17.56;100.00;98525.06;5073407;28;20295;-77
2023/06/11 00:17:53;;;;;;;7.50;4.63;;;;;;;17.56;100.00;98525.06;5072751;28;20201;-77
2023/06/11 00:20:20;;;;;;;8.50;4.67;;;;;;;17.59;100.00;98529.91;5073508;28;20224;-77
2023/06/11 00:22:47;;;;;;;9.43;5.07;;;;;;;17.58;100.00;98528.28;5072786;28;20230;-77
2023/06/11 00:25:14;;;;;;;11.23;5.40;;;;;;;17.48;100.00;98525.91;5071393;28;20228;-77
2023/06/11 00:27:41;;;;;;;8.50;5.30;;;;;;;17.42;100.00;98519.66;5071369;28;20654;-77
2023/06/11 00:30:08;;;;;;;8.10;5.00;;;;;;;17.47;100.00;98520.91;5072097;28;20314;-77
2023/06/11 00:32:36;;;;;;;10.07;5.57;;;;;;;17.48;100.00;98519.94;5072161;28;20274;-77
2023/06/11 00:35:06;;;;;;;8.50;5.27;;;;;;;17.51;100.00;98523.00;5072890;28;20226;-77
2023/06/11 00:37:34;;;;;;;8.27;5.40;;;;;;;17.52;100.00;98534.13;5072157;28;20205;-77
2023/06/11 00:40:01;;;;;;;9.33;5.50;;;;;;;17.37;100.00;98527.09;5071451;28;20286;-77
2023/06/11 00:42:28;;;;;;;9.77;5.27;;;;;;;17.28;100.00;98520.34;5071671;28;20201;-77
2023/06/11 00:44:55;;;;;;;11.43;5.57;;;;;;;17.22;100.00;98518.44;5071168;28;20215;-77
2023/06/11 00:47:22;;;;;;;9.00;5.20;;;;;;;17.27;100.00;98517.91;5071152;28;20247;-77
2023/06/11 00:49:49;;;;;;;10.53;5.47;;;;;;;17.28;100.00;98522.94;5071032;28;20207;-77
2023/06/11 00:52:19;;;;;;;22.47;5.53;;;;;;;17.19;100.00;98523.91;5070768;28;20245;-77
2023/06/11 00:54:46;;;;;;;9.97;5.10;;;;;;;17.19;100.00;98523.91;5071224;28;20671;-77
2023/06/11 00:57:17;;;;;;;9.00;5.47;;;;;;;17.18;100.00;98523.13;5070715;28;20740;-77
2023/06/11 00:59:48;;;;;;;10.50;5.20;;;;;;;17.15;100.00;98525.22;5071163;28;20205;-77
2023/06/11 01:02:21;;;;;;;9.83;5.70;;;;;;;17.15;100.00;98527.81;5071888;28;20230;-77
2023/06/11 01:04:53;;;;;;;9.97;5.13;;;;;;;17.16;100.00;98524.25;5071528;28;20261;-77
2023/06/11 01:07:22;;;;;;;10.80;5.23;;;;;;;17.19;100.00;98529.06;5070561;28;20240;-77
2023/06/11 01:09:50;;;;;;;10.43;5.30;;;;;;;17.19;100.00;98534.25;5071974;28;20277;-77
2023/06/11 01:12:16;;;;;;;7.53;4.60;;;;;;;17.14;100.00;98531.38;5070817;28;20691;-77
2023/06/11 01:14:43;;;;;;;7.73;5.00;;;;;;;17.09;100.00;98534.44;5070904;28;20204;-77
2023/06/11 01:17:15;;;;;;;10.27;5.60;;;;;;;17.00;100.00;98529.47;5070705;28;20216;-77
2023/06/11 01:20:12;;;;;;;9.07;5.10;;;;;;;16.95;100.00;98533.34;5070542;28;20289;-77
2023/06/11 01:23:33;;;;;;;9.83;4.90;;;;;;;17.00;100.00;98535.44;5070864;28;20733;-77
2023/06/11 01:26:32;;;;;;;8.87;4.77;;;;;;;17.04;100.00;98536.72;5070550;28;20245;-77
2023/06/11 01:29:01;;;;;;;12.60;5.37;;;;;;;17.02;100.00;98536.09;5058556;28;20218;-77
2023/06/11 01:31:32;;;;;;;7.30;5.00;;;;;;;17.02;100.00;98543.03;5070407;28;20222;-77
2023/06/11 01:34:01;;;;;;;9.87;5.07;;;;;;;16.91;100.00;98537.25;5070274;28;20204;-77
2023/06/11 01:36:28;;;;;;;9.77;4.77;;;;;;;16.89;100.00;98534.00;5069719;28;20235;-77
2023/06/11 01:38:58;;;;;;;8.60;5.20;;;;;;;16.89;100.00;98539.19;5069759;28;20678;-77
2023/06/11 01:41:27;;;;;;;8.27;5.10;;;;;;;16.87;100.00;98538.56;5069786;28;20303;-77
2023/06/11 01:43:54;;;;;;;9.70;5.07;;;;;;;16.72;100.00;98532.41;5069683;28;20198;-77
2023/06/11 01:46:22;;;;;;;9.97;5.30;;;;;;;16.70;100.00;98539.50;5069523;28;20230;-77
2023/06/11 01:48:49;;;;;;;9.40;4.90;;;;;;;16.73;100.00;98534.03;5069859;28;20195;-77
2023/06/11 01:51:16;;;;;;;9.43;4.70;;;;;;;16.74;100.00;98540.78;5069418;28;20278;-77
2023/06/11 01:53:43;;;;;;;10.47;5.13;;;;;;;16.74;100.00;98543.38;5069419;28;20207;-77
2023/06/11 01:56:11;;;;;;;9.40;4.43;;;;;;;16.72;100.00;98540.13;5067664;28;20219;-77
2023/06/11 01:58:38;;;;;;;8.20;4.63;;;;;;;16.72;100.00;98548.69;5069407;28;20199;-77
2023/06/11 02:01:04;;;;;;;8.80;5.07;;;;;;;16.70;100.00;98544.69;5069837;28;20223;-77
2023/06/11 02:03:33;;;;;;;7.93;4.53;;;;;;;16.70;100.00;98549.84;5069863;28;20257;-77
2023/06/11 02:05:59;;;;;;;6.60;4.47;;;;;;;16.72;100.00;98550.47;5069657;28;20293;-77
2023/06/11 02:08:27;;;;;;;8.23;4.70;;;;;;;16.69;100.00;98555.94;5069610;28;20215;-77
2023/06/11 02:10:54;;;;;;;9.93;5.30;;;;;;;16.71;100.00;98546.28;5069926;28;20219;-77
2023/06/11 02:13:21;;;;;;;8.63;4.50;;;;;;;16.66;100.00;98551.91;5069470;28;20764;-77
2023/06/11 02:15:48;;;;;;;10.40;5.27;;;;;;;16.57;100.00;98549.50;5069421;28;20229;-77
2023/06/11 02:18:14;;;;;;;9.27;4.67;;;;;;;16.49;100.00;98553.72;5069311;28;20674;-77
2023/06/11 02:20:43;;;;;;;7.63;4.87;;;;;;;16.43;100.00;98541.44;5069331;28;20219;-77
2023/06/11 02:23:09;;;;;;;9.80;4.80;;;;;;;16.43;100.00;98538.06;5069464;28;20202;-77
2023/06/11 02:25:36;;;;;;;11.20;4.80;;;;;;;16.45;100.00;98547.25;5069476;28;20238;-77
2023/06/11 02:28:06;;;;;;;8.97;4.70;;;;;;;16.44;100.00;98545.66;5069007;28;20292;-77
2023/06/11 02:30:33;;;;;;;7.43;4.60;;;;;;;16.52;100.00;98537.09;5071126;28;20227;-77
2023/06/11 02:32:59;;;;;;;6.70;4.43;;;;;;;16.56;100.00;98542.75;5072955;28;20646;-77
2023/06/11 02:35:26;;;;;;;7.23;4.80;;;;;;;16.61;100.00;98543.03;5073056;28;20230;-77
2023/06/11 02:37:54;;;;;;;7.37;4.57;;;;;;;16.63;100.00;98546.28;5072822;28;20237;-77
2023/06/11 02:40:21;;;;;;;6.93;4.77;;;;;;;16.64;100.00;98540.13;5073034;28;20215;-77
2023/06/11 02:42:48;;;;;;;7.93;4.60;;;;;;;16.62;100.00;98542.09;5072822;28;20574;-77
2023/06/11 02:45:15;;;;;;;7.97;4.47;;;;;;;16.58;100.00;98538.22;5072912;28;20227;-77
2023/06/11 02:47:42;;;;;;;9.30;5.07;;;;;;;16.51;100.00;98541.44;5072645;28;20231;-77
2023/06/11 02:50:09;;;;;;;10.17;5.00;;;;;;;16.55;100.00;98541.94;5072539;28;20235;-77
2023/06/11 02:52:35;;;;;;;9.40;4.80;;;;;;;16.54;100.00;98542.91;5072417;28;20196;-77
2023/06/11 02:55:04;;;;;;;9.07;4.83;;;;;;;16.57;100.00;98545.16;5072973;28;20237;-77
2023/06/11 02:57:31;;;;;;;9.00;5.10;;;;;;;16.56;100.00;98543.56;5072921;28;20281;-77
2023/06/11 02:59:58;;;;;;;10.43;5.60;;;;;;;16.55;100.00;98548.88;5073406;28;20218;-77
2023/06/11 03:02:25;;;;;;;10.03;5.20;;;;;;;16.50;100.00;98557.91;5072893;28;20302;-77
2023/06/11 03:04:52;;;;;;;8.37;5.10;;;;;;;16.52;100.00;98558.56;5073696;28;20257;-77
2023/06/11 03:07:19;;;;;;;8.87;5.30;;;;;;;16.53;100.00;98555.00;5072636;28;20238;-77
2023/06/11 03:09:45;;;;;;;8.97;4.80;;;;;;;16.52;100.00;98558.56;5073189;28;20209;-77
2023/06/11 03:12:14;;;;;;;9.37;5.27;;;;;;;16.55;100.00;98559.19;5072989;28;20202;-77
2023/06/11 03:14:40;;;;;;;9.73;4.40;;;;;;;16.56;100.00;98560.81;5072739;28;20292;-77
2023/06/11 03:17:07;;;;;;;8.70;5.03;;;;;;;16.58;100.00;98558.84;5072144;28;20265;-77
2023/06/11 03:19:34;;;;;;;7.77;5.10;;;;;;;16.61;100.00;98559.38;5072196;28;20199;-77
2023/06/11 03:22:01;;;;;;;10.73;4.97;;;;;;;16.63;100.00;98559.19;5071925;28;20202;-77
2023/06/11 03:24:27;;;;;;;8.23;5.17;;;;;;;16.65;100.00;98559.84;5072255;28;20584;-77
2023/06/11 03:26:54;;;;;;;9.77;4.87;;;;;;;16.68;100.00;98577.59;5071656;28;20678;-77
2023/06/11 03:29:22;;;;;;;9.47;5.20;;;;;;;16.70;100.00;98568.72;5071672;28;20200;-77
2023/06/11 03:31:49;;;;;;;9.40;4.93;;;;;;;16.64;100.00;98560.78;5072392;28;20238;-77
2023/06/11 03:34:16;;;;;;;8.60;4.90;;;;;;;16.64;100.00;98560.78;5073432;28;20191;-77
2023/06/11 03:36:43;;;;;;;8.17;4.47;;;;;;;16.60;100.00;98564.69;5071659;28;20223;-77
2023/06/11 03:39:10;;;;;;;10.63;5.23;;;;;;;16.56;100.00;98568.56;5072006;28;20204;-76
2023/06/11 03:41:37;;;;;;;6.50;4.87;;;;;;;16.56;100.00;98568.56;5071427;28;20707;-76
2023/06/11 03:44:04;;;;;;;8.93;4.80;;;;;;;16.50;100.00;98565.66;5071700;28;20199;-77
2023/06/11 03:46:32;;;;;;;11.53;5.70;;;;;;;16.52;100.00;98568.88;5071624;28;20245;-76
2023/06/11 03:48:59;;;;;;;11.20;5.63;;;;;;;16.57;100.00;98565.00;5071509;28;20214;-76
2023/06/11 03:51:26;;;;;;;10.03;5.57;;;;;;;16.59;100.00;98573.41;5071098;28;20280;-77
2023/06/11 03:53:53;;;;;;;11.90;5.20;;;;;;;16.59;100.00;98581.13;5071362;28;20204;-76
2023/06/11 03:56:20;;;;;;;10.63;5.53;;;;;;;16.64;100.00;98578.84;5071222;28;20219;-76
2023/06/11 03:58:47;;;;;;;9.53;5.10;;;;;;;16.72;100.00;98584.03;5071340;28;20205;-76
2023/06/11 04:01:14;;;;;;;10.97;6.17;;;;;;;16.81;100.00;98583.06;5071057;28;20250;-77
2023/06/11 04:03:42;;;;;;;9.37;5.63;;;;;;;16.78;100.00;98583.41;5070984;28;20227;-76
2023/06/11 04:06:09;;;;;;;8.97;5.47;;;;;;;16.79;100.00;98579.88;5071159;28;20233;-76
2023/06/11 04:08:36;;;;;;;11.40;6.10;;;;;;;16.85;100.00;98576.63;5071234;28;20234;-76
2023/06/11 04:11:02;;;;;;;11.70;6.30;;;;;;;16.89;100.00;98584.84;5070736;28;20244;-77
2023/06/11 04:13:29;;;;;;;11.77;5.70;;;;;;;16.98;100.00;98579.50;5071119;28;20213;-77
2023/06/11 04:15:56;;;;;;;10.80;5.50;;;;;;;16.98;100.00;98587.25;5070677;28;20713;-76
2023/06/11 04:18:23;;;;;;;11.20;6.33;;;;;;;17.04;100.00;98582.41;5070700;28;20286;-76
2023/06/11 04:20:51;;;;;;;14.20;6.33;;;;;;;17.10;100.00;98582.53;5070797;28;20225;-76
2023/06/11 04:23:18;;;;;;;12.07;6.60;;;;;;;17.12;100.00;98587.56;5070756;28;20209;-77
2023/06/11 04:25:48;;;;;;;12.83;6.07;;;;;;;17.16;100.00;98586.25;5070794;28;20273;-77
2023/06/11 04:28:16;;;;;;;9.17;5.37;;;;;;;17.16;100.00;98591.41;5070578;28;20258;-76
2023/06/11 04:30:42;;;;;;;12.37;6.17;;;;;;;17.19;100.00;98596.25;5070565;28;20666;-76
2023/06/11 04:33:09;;;;;;;14.13;5.90;;;;;;;17.16;100.00;98592.25;5070412;28;20209;-77
2023/06/11 04:35:37;;;;;;;10.37;5.87;;;;;;;17.16;100.00;98594.81;5070250;28;20219;-76
2023/06/11 04:38:05;;;;;;;11.43;6.07;;;;;;;17.21;100.00;98594.31;5070255;28;20735;-77
2023/06/11 04:40:33;;;;;;;10.77;6.80;;;;;;;17.24;100.00;98593.97;5070241;28;20227;-77
2023/06/11 04:43:00;;;;;;;9.60;5.87;;;;;;;17.23;100.00;98592.38;5070128;28;20201;-76
2023/06/11 04:45:28;;;;;;;10.80;6.37;;;;;;;17.24;100.00;98593.19;5070258;28;20269;-76
2023/06/11 04:47:55;;;;;;;13.43;6.00;;;;;;;17.27;100.00;98593.66;5070309;28;20296;-76
2023/06/11 04:50:22;;;;;;;8.43;5.57;;;;;;;17.24;100.00;98601.72;5070583;28;20227;-76
2023/06/11 04:52:51;;;;;;;13.57;6.90;;;;;;;17.31;100.00;98594.94;5069343;28;20232;-76
2023/06/11 04:55:21;;;;;;;10.53;5.77;;;;;;;17.35;100.00;98606.56;5070059;28;20231;-76
2023/06/11 04:57:49;;;;;;;11.90;6.67;;;;;;;17.39;100.00;98609.59;5070192;28;20216;-77
2023/06/11 05:00:17;;;;;;;10.90;6.87;;;;;;;17.45;100.00;98615.88;5069864;28;20227;-76
2023/06/11 05:02:44;;;;;;;11.90;6.60;;;;;;;17.54;100.00;98617.47;5070318;28;20211;-76
2023/06/11 05:05:11;;;;;;;14.20;6.77;;;;;;;17.57;100.00;98612.78;5070041;28;20631;-77
2023/06/11 05:07:39;;;;;;;14.13;7.27;;;;;;;17.54;100.00;98623.47;5069917;28;20275;-77
2023/06/11 05:10:07;;;;;;;13.40;6.80;;;;;;;17.51;100.00;98616.06;5069588;28;20740;-76
2023/06/11 05:12:35;;;;;;;12.00;6.70;;;;;;;17.56;100.00;98618.13;5070087;28;20569;-77
2023/06/11 05:15:02;;;;;;;12.23;6.60;;;;;;;17.60;100.00;98619.41;5069738;28;20222;-77
2023/06/11 05:17:29;;;;;;;12.40;7.00;;;;;;;17.65;100.00;98611.94;5069787;28;20274;-77
2023/06/11 05:19:56;;;;;;;11.50;6.43;;;;;;;17.63;100.00;98616.50;5069601;28;20280;-77
2023/06/11 05:22:23;;;;;;;11.83;6.73;;;;;;;17.65;100.00;98611.94;5069698;28;20206;-76
2023/06/11 05:24:49;;;;;;;12.63;7.10;;;;;;;17.70;100.00;98614.84;5069565;28;20692;-77
2023/06/11 05:27:16;;;;;;;11.97;7.00;;;;;;;17.76;100.00;98608.19;5069935;28;20303;-77
2023/06/11 05:29:45;;;;;;;12.07;6.47;;;;;;;17.83;100.00;98609.97;5069627;28;20212;-77
2023/06/11 05:32:14;;;;;;;11.87;6.20;;;;;;;17.82;100.00;98607.53;5069682;28;20204;-77
2023/06/11 05:34:41;;;;;;;11.67;6.90;;;;;;;17.86;100.00;98609.63;5069616;28;20294;-77
2023/06/11 05:37:08;;;;;;;11.33;6.60;;;;;;;17.94;100.00;98606.19;5069446;28;20210;-77
2023/06/11 05:39:35;;;;;;;11.27;6.60;;;;;;;17.98;100.00;98604.09;5069849;28;20828;-76
2023/06/11 05:42:02;;;;;;;11.60;6.63;;;;;;;17.99;100.00;98603.91;5069464;28;20289;-76
2023/06/11 05:44:29;;;;;;;11.37;6.70;;;;;;;18.13;100.00;98615.31;5069339;28;20207;-76
2023/06/11 05:46:57;;;;;;;10.03;6.13;;;;;;;18.19;100.00;98603.47;5069839;28;20222;-76
2023/06/11 05:49:24;;;;;;;11.83;6.20;;;;;;;18.31;100.00;98608.06;5069747;28;20203;-77
2023/06/11 05:51:50;;;;;;;14.83;6.83;;;;;;;18.42;100.00;98603.47;5069875;28;20223;-76
2023/06/11 05:54:17;;;;;;;13.07;6.67;;;;;;;18.61;100.00;98603.00;5069417;28;20252;-76
2023/06/11 05:56:44;;;;;;;10.83;6.83;;;;;;;18.89;100.00;98595.50;5069372;28;20234;-77
2023/06/11 05:59:11;;;;;;;9.80;6.53;;;;;;;19.21;100.00;98598.75;5069568;28;20576;-76
2023/06/11 06:01:38;;;;;;;10.77;6.57;;;;;;;19.62;100.00;98596.50;5069743;28;20674;-77
2023/06/11 06:04:06;;;;;;;9.57;5.63;;;;;;;20.02;100.00;98599.59;5069506;28;20201;-77
2023/06/11 06:06:33;;;;;;;12.20;5.63;;;;;;;20.18;100.00;98608.13;5073072;28;20219;-77
2023/06/11 06:09:00;;;;;;;10.53;6.20;;;;;;;20.30;100.00;98610.06;5073152;28;20234;-77
2023/06/11 06:11:27;;;;;;;9.87;5.70;;;;;;;20.38;100.00;98609.13;5073195;28;20224;-77
2023/06/11 06:13:53;;;;;;;9.50;4.97;;;;;;;20.44;100.00;98613.59;5073226;28;20201;-77
2023/06/11 06:16:20;;;;;;;8.03;5.17;;;;;;;20.50;100.00;98619.81;5073363;28;20226;-77
2023/06/11 06:18:47;;;;;;;7.87;5.53;;;;;;;20.73;100.00;98615.25;5073100;28;20217;-77
2023/06/11 06:21:15;;;;;;;7.23;4.80;;;;;;;21.12;100.00;98621.75;5072995;28;20222;-77
2023/06/11 06:23:42;;;;;;;7.80;5.43;;;;;;;21.53;100.00;98623.63;5073427;28;20204;-77
2023/06/11 06:26:08;;;;;;;8.00;4.93;;;;;;;21.67;100.00;98637.47;5073080;28;20222;-77
2023/06/11 06:28:35;;;;;;;8.90;5.37;;;;;;;21.61;100.00;98627.84;5072579;28;20290;-77
2023/06/11 06:31:07;;;;;;;10.33;4.83;;;;;;;21.59;100.00;98635.88;5072864;28;20313;-77
2023/06/11 06:33:37;;;;;;;6.47;4.68;;;;;;;21.74;100.00;98633.13;5072721;28;20287;-77
2023/06/11 06:36:05;;;;;;;7.93;5.00;;;;;;;21.78;100.00;98644.75;5072645;28;20648;-77
2023/06/11 06:38:35;;;;;;;9.43;4.75;;;;;;;21.91;100.00;98660.44;5072751;28;20233;-77
2023/06/11 06:41:02;;;;;;;7.83;4.90;;;;;;;22.28;100.00;98667.97;5072683;28;20706;-77
2023/06/11 06:43:29;;;;;;;7.30;4.97;;;;;;;22.76;100.00;98681.69;5072899;28;20198;-77
2023/06/11 06:45:56;;;;;;;6.47;4.68;;;;;;;23.18;100.00;98682.31;5072629;28;20223;-77
2023/06/11 06:48:23;;;;;;;8.10;4.85;;;;;;;23.53;100.00;98669.00;5072643;28;20773;-77
2023/06/11 06:50:50;;;;;;;7.00;4.82;;;;;;;23.94;100.00;98662.72;5072600;28;20252;-77
2023/06/11 06:53:17;;;;;;;9.32;4.93;;;;;;;24.26;98.50;98678.41;5072347;28;20222;-77
2023/06/11 06:55:45;;;;;;;9.52;5.75;;;;;;;24.45;93.10;98674.91;5073975;28;20219;-77
2023/06/11 06:58:12;;;;;;;6.85;4.57;;;;;;;24.68;92.29;98681.41;5073820;28;20617;-77
2023/06/11 07:00:40;;;;;;;6.68;4.63;;;;;;;24.93;91.27;98678.78;5074018;28;20226;-77
2023/06/11 07:03:09;;;;;;;6.68;4.70;;;;;;;25.09;83.93;98688.72;5072207;28;20663;-77
2023/06/11 07:05:36;;;;;;;6.90;4.53;;;;;;;25.31;83.73;98686.56;5073202;28;20230;-77
2023/06/11 07:08:03;;;;;;;11.90;6.13;;;;;;;25.44;87.80;98686.41;5073666;28;20238;-77
2023/06/11 07:10:30;;;;;;;7.03;4.20;;;;;;;25.63;86.49;98689.06;5072874;28;20226;-77
2023/06/11 07:12:58;;;;;;;5.95;4.00;;;;;;;25.83;84.24;98684.44;5072666;28;20203;-77
2023/06/11 07:15:25;;;;;;;6.47;4.18;;;;;;;25.94;82.26;98686.28;5073757;28;20215;-77
2023/06/11 07:17:52;;;;;;;7.53;5.25;;;;;;;26.06;81.65;98685.56;5073066;28;20203;-77
2023/06/11 07:20:19;;;;;;;6.15;4.50;;;;;;;26.26;79.19;98683.47;5073005;28;20258;-77
2023/06/11 07:22:46;;;;;;;9.30;5.20;;;;;;;26.42;78.96;98688.09;5073810;28;20203;-77
2023/06/11 07:25:13;;;;;;;8.27;4.22;;;;;;;26.52;80.62;98682.34;5073792;28;20215;-77
2023/06/11 07:27:40;;;;;;;5.78;4.40;;;;;;;26.59;83.82;98683.06;5073694;28;20706;-77
2023/06/11 07:30:09;;;;;;;4.75;3.70;;;;;;;26.60;78.43;98681.22;5073677;28;20219;-77
2023/06/11 07:32:36;;;;;;;6.85;4.40;;;;;;;26.72;80.45;98682.03;5078645;28;20199;-78
2023/06/11 07:35:03;;;;;;;7.30;4.80;;;;;;;26.84;80.99;98680.22;5076610;28;20276;-78
2023/06/11 07:37:30;;;;;;;9.27;6.32;;;;;;;27.01;79.23;98690.06;5077739;28;20202;-78
2023/06/11 07:39:57;;;;;;;7.05;4.80;;;;;;;27.12;76.18;98689.28;5076814;28;20352;-78
2023/06/11 07:42:24;;;;;;;6.28;5.00;;;;;;;27.36;77.31;98699.81;5077970;28;20213;-78
2023/06/11 07:44:51;;;;;;;11.50;6.47;;;;;;;27.54;74.97;98694.41;5075967;28;20199;-77
2023/06/11 07:47:19;;;;;;;9.32;5.55;;;;;;;27.65;74.42;98690.97;5078959;28;20225;-77
2023/06/11 07:49:46;;;;;;;5.32;4.10;;;;;;;27.89;74.13;98685.69;5077369;28;20226;-78
2023/06/11 07:52:13;;;;;;;10.48;3.92;;;;;;;28.08;71.87;98673.97;5077515;28;20199;-78
2023/06/11 07:54:40;;;;;;;5.43;4.22;;;;;;;28.10;71.15;98686.88;5080449;28;20646;-78
2023/06/11 07:57:08;;;;;;;6.13;4.07;;;;;;;28.05;65.09;98684.16;5079117;28;20670;-78
2023/06/11 07:59:36;;;;;;;7.82;4.85;;;;;;;28.26;73.75;98675.59;5076374;28;20207;-78
2023/06/11 08:02:04;;;;;;;6.78;4.72;;;;;;;28.40;69.97;98665.59;5077791;28;20205;-78
2023/06/11 08:04:32;;;;;;;8.55;5.72;;;;;;;28.41;68.05;98682.97;5077167;28;20206;-78
2023/06/11 08:06:59;;;;;;;6.05;4.80;;;;;;;28.59;65.13;98674.88;5081872;28;20241;-78
2023/06/11 08:09:26;;;;;;;6.15;4.75;;;;;;;28.67;63.78;98676.31;5080763;28;20230;-78
2023/06/11 08:11:52;;;;;;;6.30;4.28;;;;;;;28.94;67.08;98676.47;5081422;28;20619;-78
2023/06/11 08:14:20;;;;;;;6.35;4.15;;;;;;;29.13;60.42;98684.16;5079523;28;20199;-78
2023/06/11 08:16:47;;;;;;;5.80;4.32;;;;;;;29.11;59.96;98679.91;5079745;28;20309;-78
2023/06/11 08:19:14;;;;;;;7.07;4.07;;;;;;;29.20;60.85;98682.16;5077776;28;20199;-78
2023/06/11 08:21:43;;;;;;;4.15;3.30;;;;;;;29.29;60.06;98676.25;5081896;28;20226;-78
2023/06/11 08:24:10;;;;;;;4.72;3.47;;;;;;;29.48;59.34;98674.13;5079869;28;20199;-78
2023/06/11 08:26:37;;;;;;;4.20;3.08;;;;;;;29.75;57.33;98676.03;5074328;28;20218;-78
2023/06/11 08:29:04;;;;;;;3.67;3.22;;;;;;;29.79;52.41;98677.16;5075355;28;20284;-78
2023/06/11 08:31:31;;;;;;;6.57;3.35;;;;;;;29.75;52.27;98676.84;5077486;28;20219;-78
2023/06/11 08:33:58;;;;;;;4.95;3.58;;;;;;;29.40;51.33;98679.78;5075391;28;20203;-79
2023/06/11 08:36:25;;;;;;;6.43;4.30;;;;;;;29.55;52.64;98672.09;5061512;28;20739;-78
2023/06/11 08:38:53;;;;;;;3.60;3.20;;;;;;;29.80;58.41;98668.19;5058731;28;20203;-78
2023/06/11 08:41:21;;;;;;;5.20;3.97;;;;;;;29.76;53.42;98677.66;5059765;28;20230;-79
2023/06/11 08:43:47;;;;;;;5.30;3.50;;;;;;;30.10;58.15;98673.00;5058504;28;20203;-79
2023/06/11 08:46:15;;;;;;;5.30;3.63;;;;;;;30.28;52.46;98674.50;5054916;28;20227;-78
2023/06/11 08:48:43;;;;;;;5.10;3.83;;;;;;;30.17;55.13;98675.47;5053756;28;20330;-78
2023/06/11 08:51:11;;;;;;;5.90;4.05;;;;;;;30.25;55.73;98672.38;5055496;28;20719;-78
2023/06/11 08:53:38;;;;;;;4.63;3.70;;;;;;;30.14;53.91;98671.47;5055811;28;20212;-79
2023/06/11 08:56:07;;;;;;;6.80;4.13;;;;;;;30.24;55.11;98670.78;5056065;28;20223;-77
2023/06/11 08:58:35;;;;;;;4.85;3.85;;;;;;;30.06;50.75;98671.91;5057975;28;20207;-78
2023/06/11 09:01:09;;;;;;;8.68;3.60;;;;;;;30.28;52.84;98669.25;5059298;28;20227;-77
2023/06/11 09:03:36;;;;;;;4.57;3.63;;;;;;;30.48;53.30;98667.84;5056022;28;20645;-78
2023/06/11 09:06:03;;;;;;;3.95;3.10;;;;;;;30.70;52.83;98670.41;5054814;28;20277;-79
2023/06/11 09:08:30;;;;;;;7.25;3.65;;;;;;;30.87;50.63;98674.53;5057890;28;20297;-78
2023/06/11 09:10:57;;;;;;;6.82;3.75;;;;;;;30.94;47.76;98671.66;5058955;28;20219;-78
2023/06/11 09:13:27;;;;;;;6.20;3.72;;;;;;;31.04;51.11;98663.00;5056029;28;20191;-77
2023/06/11 09:15:55;;;;;;;4.38;3.50;;;;;;;31.09;48.96;98663.03;5057401;28;20227;-78
2023/06/11 09:18:24;;;;;;;4.72;3.50;;;;;;;31.05;47.21;98664.59;5054064;28;20207;-77
2023/06/11 09:20:52;;;;;;;6.80;3.20;;;;;;;31.17;46.95;98659.13;5056209;28;20227;-78
2023/06/11 09:23:26;;;;;;;4.80;3.50;;;;;;;31.12;46.29;98667.81;5052548;28;20211;-79
2023/06/11 09:25:53;;;;;;;5.57;3.85;;;;;;;31.36;44.41;98665.59;5065218;28;20215;-78
2023/06/11 09:28:20;;;;;;;5.70;3.70;;;;;;;31.25;43.42;98672.66;5053881;28;20235;-78
2023/06/11 09:30:58;;;;;;;4.03;2.90;;;;;;;30.94;43.15;98660.31;5055910;28;20229;-78
2023/06/11 09:33:25;;;;;;;5.70;3.90;;;;;;;31.30;46.94;98663.94;5057606;28;20199;-78
2023/06/11 09:35:52;;;;;;;3.70;3.25;;;;;;;31.54;51.98;98665.16;5053129;28;20225;-77
2023/06/11 09:38:20;;;;;;;8.07;5.57;;;;;;;31.77;48.14;98657.84;5054907;28;20203;-77
2023/06/11 09:40:48;;;;;;;17.17;10.60;;;;;;;31.83;42.43;98662.09;5058497;28;20225;-78
2023/06/11 09:43:15;;;;;;;4.97;3.70;;;;;;;31.94;43.48;98660.28;5060457;28;20587;-78
2023/06/11 09:45:42;;;;;;;6.63;3.17;;;;;;;31.86;45.19;98660.78;5055028;28;20225;-77
2023/06/11 09:48:12;;;;;;;5.72;3.25;;;;;;;31.71;41.91;98656.25;5056879;28;20211;-77
2023/06/11 09:50:40;;;;;;;4.90;3.38;;;;;;;31.67;47.18;98648.00;5055556;28;20219;-78
2023/06/11 09:53:10;;;;;;;3.95;3.30;;;;;;;31.79;44.60;98653.88;5053834;28;20648;-77
2023/06/11 09:55:38;;;;;;;5.28;3.47;;;;;;;31.97;44.38;98646.53;5055128;28;20594;-77
2023/06/11 09:58:05;;;;;;;4.78;3.60;;;;;;;31.84;41.80;98647.81;5060078;28;20222;-77
2023/06/11 10:00:34;;;;;;;4.30;3.47;;;;;;;31.93;42.30;98645.47;5059922;28;20227;-77
2023/06/11 10:03:01;;;;;;;6.25;3.53;;;;;;;32.19;43.87;98631.22;5057203;28;20203;-77
2023/06/11 10:05:30;;;;;;;5.10;3.17;;;;;;;32.12;42.93;98636.00;5060047;28;20369;-77
2023/06/11 10:08:02;;;;;;;4.78;3.25;;;;;;;32.21;42.99;98625.69;5059302;28;20420;-77
2023/06/11 10:10:30;;;;;;;5.28;3.70;;;;;;;31.99;43.87;98628.56;5063186;28;20323;-77
2023/06/11 10:12:56;;;;;;;8.10;3.65;;;;;;;31.95;43.37;98627.50;5058518;28;20779;-77
2023/06/11 10:15:24;;;;;;;4.47;3.50;;;;;;;32.14;45.16;98620.63;5056509;28;20224;-78
2023/06/11 10:17:52;;;;;;;4.60;3.53;;;;;;;32.20;46.69;98619.63;5056721;28;20289;-77
2023/06/11 10:20:21;;;;;;;5.03;3.53;;;;;;;32.35;43.73;98615.34;5055191;28;20235;-77
2023/06/11 10:22:50;;;;;;;6.88;3.45;;;;;;;32.56;41.25;98616.97;5054529;28;20195;-77
2023/06/11 10:25:17;;;;;;;4.80;3.60;;;;;;;32.45;41.80;98610.91;5052821;28;20288;-77
2023/06/11 10:27:44;;;;;;;6.72;3.42;;;;;;;32.54;43.86;98605.84;5056737;28;20218;-76
2023/06/11 10:30:22;;;;;;;4.50;3.47;;;;;;;32.32;44.88;98605.31;5054796;28;20703;-76
2023/06/11 10:32:50;;;;;;;4.30;3.20;;;;;;;32.50;46.25;98604.81;5056019;28;20203;-77
2023/06/11 10:35:23;;;;;;;5.15;3.38;;;;;;;32.41;44.06;98609.03;5055579;28;20247;-77
2023/06/11 10:38:03;;;;;;;4.90;3.55;;;;;;;32.61;44.46;98606.41;5054218;28;20203;-76
2023/06/11 10:40:34;;;;;;;4.93;3.53;;;;;;;32.73;42.26;98605.31;5053057;28;20647;-77
2023/06/11 10:43:04;;;;;;;4.90;3.50;;;;;;;32.66;45.13;98606.38;5053557;28;20212;-77
2023/06/11 10:45:36;;;;;;;6.25;3.15;;;;;;;32.44;43.44;98603.22;5053603;28;20711;-77
2023/06/11 10:48:02;;;;;;;7.35;3.38;;;;;;;32.40;45.25;98594.19;5052976;28;20200;-77
2023/06/11 10:50:31;;;;;;;5.65;3.53;;;;;;;32.32;42.86;98594.72;5056911;28;20232;-77
2023/06/11 10:53:01;;;;;;;5.90;3.50;;;;;;;32.39;40.51;98597.91;5056829;28;20345;-77
2023/06/11 10:55:29;;;;;;;5.32;3.15;;;;;;;32.43;43.48;98591.00;5053642;28;20219;-77
2023/06/11 10:57:57;;;;;;;4.40;3.55;;;;;;;32.59;43.03;98589.97;5057031;28;21444;-77
2023/06/11 11:00:28;;;;;;;5.35;3.10;;;;;;;32.85;41.37;98592.59;5074481;28;20226;-77
2023/06/11 11:02:57;;;;;;;3.88;3.25;;;;;;;33.06;42.10;98591.47;5077478;28;20573;-77
2023/06/11 11:05:25;;;;;;;5.25;3.20;;;;;;;32.95;39.55;98597.06;5077410;28;20319;-77
2023/06/11 11:07:53;;;;;;;6.53;4.10;;;;;;;32.89;41.87;98588.31;5076516;28;20195;-77
2023/06/11 11:10:24;;;;;;;4.68;3.63;;;;;;;33.03;41.67;98586.72;5075666;28;20230;-77
2023/06/11 11:12:52;;;;;;;5.43;3.22;;;;;;;32.90;39.15;98584.59;5075505;28;20213;-78
2023/06/11 11:15:19;;;;;;;3.97;3.20;;;;;;;32.86;38.88;98584.34;5078450;28;20226;-78
2023/06/11 11:17:47;;;;;;;3.78;2.47;;;;;;;32.79;37.64;98580.44;5076740;28;20205;-77
2023/06/11 11:20:17;;;;;;;4.78;3.28;;;;;;;32.59;38.47;98579.41;5070288;28;20223;-77
2023/06/11 11:22:48;;;;;;;3.60;2.88;;;;;;;32.27;39.25;98563.00;5074557;28;20368;-77
2023/06/11 11:25:15;;;;;;;5.93;3.20;;;;;;;32.35;41.87;98563.25;5072414;28;20214;-77
2023/06/11 11:27:44;;;;;;;4.50;3.00;;;;;;;32.40;41.92;98562.44;5072815;28;20730;-78
2023/06/11 11:30:11;;;;;;;3.90;3.03;;;;;;;32.64;41.26;98558.22;5072585;28;20234;-76